createdAt,value
2018-05-27T00:00:52.340Z,22.02
2018-05-27T00:03:19.763Z,21.90
2018-05-27T00:05:47.151Z,21.98
2018-05-27T00:08:14.544Z,22.03
2018-05-27T00:10:41.934Z,22.02
2018-05-27T00:13:09.322Z,21.99
2018-05-27T00:15:36.790Z,21.84
2018-05-27T00:18:04.185Z,21.71
2018-05-27T00:20:31.628Z,21.63
2018-05-27T00:22:58.999Z,21.55
2018-05-27T00:25:26.407Z,21.49
2018-05-27T00:27:53.786Z,21.45
2018-05-27T00:30:21.182Z,21.39
2018-05-27T00:32:48.579Z,21.36
2018-05-27T00:35:15.967Z,21.29
2018-05-27T00:37:43.363Z,21.26
2018-05-27T00:40:10.755Z,21.18
2018-05-27T00:42:38.272Z,21.10
2018-05-27T00:45:05.662Z,21.04
2018-05-27T00:47:33.060Z,20.93
2018-05-27T00:50:00.448Z,20.94
2018-05-27T00:52:27.839Z,20.91
2018-05-27T00:54:55.231Z,20.90
2018-05-27T00:57:22.629Z,20.96
2018-05-27T00:59:50.020Z,20.92
2018-05-27T01:02:17.412Z,20.92
2018-05-27T01:04:44.836Z,20.96
2018-05-27T01:07:12.215Z,20.98
2018-05-27T01:09:39.619Z,20.93
2018-05-27T01:12:07.414Z,20.90
2018-05-27T01:14:34.805Z,20.85
2018-05-27T01:17:02.198Z,20.80
2018-05-27T01:19:29.586Z,20.76
2018-05-27T01:21:56.978Z,20.66
2018-05-27T01:24:24.379Z,20.59
2018-05-27T01:26:51.775Z,20.52
2018-05-27T01:29:19.158Z,20.49
2018-05-27T01:31:46.564Z,20.43
2018-05-27T01:34:13.948Z,20.36
2018-05-27T01:36:41.336Z,20.28
2018-05-27T01:39:08.723Z,20.29
2018-05-27T01:41:36.111Z,20.26
2018-05-27T01:44:03.511Z,20.23
2018-05-27T01:46:30.899Z,20.16
2018-05-27T01:48:58.294Z,20.11
2018-05-27T01:51:25.678Z,20.09
2018-05-27T01:53:53.083Z,20.07
2018-05-27T01:56:20.471Z,20.05
2018-05-27T01:58:47.863Z,20.01
2018-05-27T02:01:15.264Z,19.99
2018-05-27T02:03:42.655Z,19.98
2018-05-27T02:06:10.047Z,19.96
2018-05-27T02:08:37.464Z,19.97
2018-05-27T02:11:04.862Z,19.93
2018-05-27T02:13:32.251Z,19.92
2018-05-27T02:15:59.642Z,19.90
2018-05-27T02:18:27.037Z,19.91
2018-05-27T02:20:54.435Z,19.90
2018-05-27T02:23:21.827Z,19.89
2018-05-27T02:25:49.222Z,19.92
2018-05-27T02:28:16.615Z,19.93
2018-05-27T02:30:44.000Z,19.90
2018-05-27T02:33:11.392Z,19.88
2018-05-27T02:35:38.775Z,19.83
2018-05-27T02:38:06.175Z,19.76
2018-05-27T02:40:33.566Z,19.72
2018-05-27T02:43:00.959Z,19.66
2018-05-27T02:45:28.355Z,19.66
2018-05-27T02:47:55.752Z,19.63
2018-05-27T02:50:23.289Z,19.60
2018-05-27T02:52:51.142Z,19.60
2018-05-27T02:55:18.531Z,19.61
2018-05-27T02:57:46.071Z,19.60
2018-05-27T03:00:13.469Z,19.57
2018-05-27T03:02:40.864Z,19.57
2018-05-27T03:05:08.260Z,19.59
2018-05-27T03:07:35.651Z,19.59
2018-05-27T03:10:03.051Z,19.59
2018-05-27T03:12:30.468Z,19.69
2018-05-27T03:14:58.073Z,19.75
2018-05-27T03:17:25.459Z,19.75
2018-05-27T03:19:52.845Z,19.76
2018-05-27T03:22:20.236Z,19.83
2018-05-27T03:24:47.627Z,19.83
2018-05-27T03:27:15.022Z,19.81
2018-05-27T03:29:42.411Z,19.76
2018-05-27T03:32:09.807Z,19.79
2018-05-27T03:34:37.195Z,19.83
2018-05-27T03:37:04.591Z,19.81
2018-05-27T03:39:31.980Z,19.81
2018-05-27T03:41:59.366Z,19.79
2018-05-27T03:44:26.764Z,19.77
2018-05-27T03:46:54.151Z,19.77
2018-05-27T03:49:21.554Z,19.80
2018-05-27T03:51:48.942Z,19.84
2018-05-27T03:54:16.347Z,19.86
2018-05-27T03:56:43.734Z,19.89
2018-05-27T03:59:11.126Z,19.89
2018-05-27T04:01:38.519Z,19.89
2018-05-27T04:04:18.074Z,19.88
2018-05-27T04:06:57.143Z,19.87
2018-05-27T04:09:24.559Z,19.90
2018-05-27T04:11:51.952Z,19.96
2018-05-27T04:14:19.339Z,20.06
2018-05-27T04:16:46.732Z,20.18
2018-05-27T04:19:14.120Z,20.25
2018-05-27T04:21:41.563Z,20.29
2018-05-27T04:24:08.995Z,20.23
2018-05-27T04:26:36.395Z,20.19
2018-05-27T04:29:03.782Z,20.14
2018-05-27T04:31:31.212Z,20.12
2018-05-27T04:33:58.599Z,20.17
2018-05-27T04:36:26.011Z,20.21
2018-05-27T04:38:53.406Z,20.27
2018-05-27T04:41:20.786Z,20.28
2018-05-27T04:43:48.183Z,20.27
2018-05-27T04:46:15.570Z,20.27
2018-05-27T04:48:42.972Z,20.25
2018-05-27T04:51:10.359Z,20.28
2018-05-27T04:53:37.762Z,20.33
2018-05-27T04:56:05.155Z,20.36
2018-05-27T04:58:32.583Z,20.45
2018-05-27T05:00:59.970Z,20.56
2018-05-27T05:03:27.375Z,20.67
2018-05-27T05:05:54.762Z,20.81
2018-05-27T05:08:22.154Z,20.92
2018-05-27T05:10:49.865Z,21.08
2018-05-27T05:13:17.246Z,21.21
2018-05-27T05:15:44.643Z,21.27
2018-05-27T05:18:12.031Z,21.34
2018-05-27T05:20:39.430Z,21.45
2018-05-27T05:23:06.879Z,21.68
2018-05-27T05:25:34.510Z,21.75
2018-05-27T05:28:01.902Z,21.93
2018-05-27T05:30:29.287Z,22.02
2018-05-27T05:32:56.678Z,22.21
2018-05-27T05:35:24.071Z,22.28
2018-05-27T05:37:51.479Z,22.36
2018-05-27T05:40:18.896Z,22.40
2018-05-27T05:42:46.294Z,22.49
2018-05-27T05:45:13.686Z,22.46
2018-05-27T05:47:41.095Z,22.60
2018-05-27T05:50:08.525Z,22.64
2018-05-27T05:52:35.902Z,22.77
2018-05-27T05:55:03.300Z,22.83
2018-05-27T05:57:30.725Z,22.83
2018-05-27T05:59:58.155Z,22.91
2018-05-27T06:02:25.554Z,22.90
2018-05-27T06:04:52.958Z,22.94
2018-05-27T06:07:20.355Z,22.93
2018-05-27T06:09:47.739Z,22.92
2018-05-27T06:12:15.127Z,22.96
2018-05-27T06:14:42.530Z,23.00
2018-05-27T06:17:09.926Z,23.09
2018-05-27T06:19:37.344Z,23.19
2018-05-27T06:22:04.702Z,23.30
2018-05-27T06:24:32.119Z,23.45
2018-05-27T06:26:59.579Z,23.66
2018-05-27T06:29:26.969Z,23.81
2018-05-27T06:31:54.359Z,24.01
2018-05-27T06:34:21.747Z,24.21
2018-05-27T06:36:49.139Z,24.38
2018-05-27T06:39:16.539Z,24.44
2018-05-27T06:41:43.934Z,24.54
2018-05-27T06:44:11.323Z,24.52
2018-05-27T06:46:38.744Z,24.67
2018-05-27T06:49:06.129Z,24.65
2018-05-27T06:51:33.527Z,24.74
2018-05-27T06:54:00.915Z,24.78
2018-05-27T06:56:28.308Z,24.82
2018-05-27T06:58:55.701Z,24.89
2018-05-27T07:01:23.088Z,24.92
2018-05-27T07:03:50.486Z,24.97
2018-05-27T07:06:17.867Z,25.01
2018-05-27T07:08:45.271Z,25.08
2018-05-27T07:11:12.666Z,25.27
2018-05-27T07:13:40.064Z,25.33
2018-05-27T07:16:07.467Z,25.53
2018-05-27T07:18:34.850Z,25.67
2018-05-27T07:21:02.255Z,25.73
2018-05-27T07:23:29.661Z,25.85
2018-05-27T07:25:57.041Z,26.03
2018-05-27T07:28:24.427Z,26.17
2018-05-27T07:30:51.819Z,26.34
2018-05-27T07:33:19.207Z,26.44
2018-05-27T07:35:46.614Z,26.46
2018-05-27T07:38:14.015Z,26.28
2018-05-27T07:40:41.426Z,26.28
2018-05-27T07:43:08.819Z,26.23
2018-05-27T07:45:36.223Z,26.20
2018-05-27T07:48:03.619Z,26.10
2018-05-27T07:50:31.006Z,25.99
2018-05-27T07:52:58.402Z,25.97
2018-05-27T07:55:25.793Z,26.02
2018-05-27T07:57:53.183Z,26.11
2018-05-27T08:00:20.570Z,26.15
2018-05-27T08:02:47.969Z,26.25
2018-05-27T08:05:15.355Z,26.30
2018-05-27T08:07:42.750Z,26.38
2018-05-27T08:10:10.147Z,26.50
2018-05-27T08:12:37.554Z,26.64
2018-05-27T08:15:04.939Z,26.74
2018-05-27T08:17:32.354Z,26.82
2018-05-27T08:19:59.742Z,27.01
2018-05-27T08:22:27.115Z,27.20
2018-05-27T08:24:54.503Z,27.38
2018-05-27T08:27:21.902Z,27.52
2018-05-27T08:29:49.304Z,27.59
2018-05-27T08:32:16.730Z,27.63
2018-05-27T08:34:44.126Z,27.75
2018-05-27T08:37:11.521Z,27.84
2018-05-27T08:39:38.906Z,27.88
2018-05-27T08:42:06.303Z,27.95
2018-05-27T08:44:33.686Z,28.11
2018-05-27T08:47:01.083Z,28.23
2018-05-27T08:49:28.471Z,28.41
2018-05-27T08:51:55.863Z,28.55
2018-05-27T08:54:23.366Z,28.62
2018-05-27T08:56:50.771Z,28.66
2018-05-27T08:59:18.164Z,28.69
2018-05-27T09:01:45.546Z,28.73
2018-05-27T09:04:12.931Z,28.89
2018-05-27T09:06:40.322Z,29.04
2018-05-27T09:09:07.711Z,29.14
2018-05-27T09:11:35.102Z,29.24
2018-05-27T09:14:02.495Z,29.28
2018-05-27T09:16:29.883Z,29.35
2018-05-27T09:18:57.305Z,29.44
2018-05-27T09:21:24.711Z,29.55
2018-05-27T09:23:52.733Z,29.69
2018-05-27T09:26:20.131Z,29.83
2018-05-27T09:28:47.523Z,30.06
2018-05-27T09:31:14.916Z,30.29
2018-05-27T09:33:42.330Z,30.52
2018-05-27T09:36:09.743Z,30.78
2018-05-27T09:38:37.119Z,31.07
2018-05-27T09:41:04.535Z,31.12
2018-05-27T09:43:31.915Z,31.57
2018-05-27T09:45:59.306Z,31.94
2018-05-27T09:48:26.719Z,32.29
2018-05-27T09:50:54.105Z,32.68
2018-05-27T09:53:21.502Z,32.93
2018-05-27T09:55:48.954Z,33.11
2018-05-27T09:58:16.363Z,33.54
2018-05-27T10:00:43.775Z,33.97
2018-05-27T10:03:11.155Z,34.33
2018-05-27T10:05:38.551Z,34.02
2018-05-27T10:08:05.959Z,34.26
2018-05-27T10:10:33.344Z,34.41
2018-05-27T10:13:00.783Z,34.91
2018-05-27T10:15:28.178Z,34.80
2018-05-27T10:17:55.623Z,35.19
2018-05-27T10:20:23.014Z,35.34
2018-05-27T10:22:50.399Z,35.38
2018-05-27T10:25:17.793Z,35.20
2018-05-27T10:27:45.187Z,34.67
2018-05-27T10:30:12.650Z,34.57
2018-05-27T10:32:40.038Z,34.59
2018-05-27T10:35:07.448Z,34.48
2018-05-27T10:37:34.842Z,34.24
2018-05-27T10:40:02.243Z,33.96
2018-05-27T10:42:29.643Z,33.57
2018-05-27T10:44:57.039Z,33.33
2018-05-27T10:47:24.445Z,33.09
2018-05-27T10:49:51.830Z,33.00
2018-05-27T10:52:19.227Z,32.91
2018-05-27T10:54:46.619Z,32.90
2018-05-27T10:57:14.031Z,32.66
2018-05-27T10:59:41.423Z,32.44
2018-05-27T11:02:08.822Z,32.34
2018-05-27T11:04:36.220Z,32.25
2018-05-27T11:07:03.619Z,32.19
2018-05-27T11:09:31.020Z,32.15
2018-05-27T11:11:58.419Z,31.97
2018-05-27T11:14:25.824Z,31.62
2018-05-27T11:16:53.220Z,31.38
2018-05-27T11:19:20.899Z,30.95
2018-05-27T11:21:48.284Z,30.80
2018-05-27T11:24:16.707Z,30.70
2018-05-27T11:26:44.103Z,30.62
2018-05-27T11:29:11.500Z,30.46
2018-05-27T11:31:38.891Z,30.31
2018-05-27T11:34:06.415Z,30.18
2018-05-27T11:36:33.807Z,30.02
2018-05-27T11:39:01.195Z,30.00
2018-05-27T11:41:28.588Z,29.95
2018-05-27T11:43:55.987Z,29.85
2018-05-27T11:46:23.379Z,29.81
2018-05-27T11:48:50.779Z,29.77
2018-05-27T11:51:18.187Z,29.74
2018-05-27T11:53:46.704Z,29.59
2018-05-27T11:56:14.079Z,29.62
2018-05-27T11:58:41.475Z,29.58
2018-05-27T12:01:08.859Z,29.55
2018-05-27T12:03:36.263Z,29.49
2018-05-27T12:06:03.662Z,29.33
2018-05-27T12:08:31.043Z,29.22
2018-05-27T12:10:58.447Z,29.18
2018-05-27T12:13:25.835Z,29.19
2018-05-27T12:15:53.272Z,29.24
2018-05-27T12:18:20.622Z,29.22
2018-05-27T12:20:48.050Z,29.09
2018-05-27T12:23:15.438Z,29.02
2018-05-27T12:25:42.943Z,28.72
2018-05-27T12:28:10.507Z,28.17
2018-05-27T12:30:37.930Z,28.19
2018-05-27T12:33:05.340Z,28.17
2018-05-27T12:35:32.752Z,28.06
2018-05-27T12:38:00.171Z,27.91
2018-05-27T12:40:27.563Z,27.81
2018-05-27T12:42:55.004Z,27.71
2018-05-27T12:45:22.831Z,27.53
2018-05-27T12:47:50.238Z,27.47
2018-05-27T12:50:17.662Z,27.46
2018-05-27T12:52:45.095Z,27.46
2018-05-27T12:55:12.487Z,27.24
2018-05-27T12:57:40.821Z,27.26
2018-05-27T13:00:08.547Z,27.24
2018-05-27T13:02:35.922Z,27.21
2018-05-27T13:05:03.336Z,27.20
2018-05-27T13:07:30.719Z,27.21
2018-05-27T13:09:58.110Z,27.17
2018-05-27T13:12:25.500Z,27.14
2018-05-27T13:14:52.903Z,27.18
2018-05-27T13:17:20.300Z,27.16
2018-05-27T13:19:47.705Z,27.23
2018-05-27T13:22:15.099Z,27.20
2018-05-27T13:24:42.495Z,27.15
2018-05-27T13:27:09.891Z,27.07
2018-05-27T13:29:37.302Z,27.15
2018-05-27T13:32:04.711Z,27.28
2018-05-27T13:34:32.108Z,27.35
2018-05-27T13:36:59.505Z,27.45
2018-05-27T13:39:26.967Z,27.57
2018-05-27T13:41:54.420Z,27.70
2018-05-27T13:44:21.896Z,27.83
2018-05-27T13:46:49.284Z,27.87
2018-05-27T13:49:16.767Z,27.99
2018-05-27T13:51:44.135Z,27.71
2018-05-27T13:54:11.543Z,27.62
2018-05-27T13:56:39.027Z,27.87
2018-05-27T13:59:06.499Z,28.22
2018-05-27T14:01:33.943Z,28.29
2018-05-27T14:04:01.325Z,28.18
2018-05-27T14:06:28.771Z,28.39
2018-05-27T14:08:56.163Z,28.69
2018-05-27T14:11:23.558Z,28.59
2018-05-27T14:13:50.959Z,28.74
2018-05-27T14:16:18.343Z,28.76
2018-05-27T14:18:45.758Z,28.78
2018-05-27T14:21:13.138Z,28.90
2018-05-27T14:23:40.863Z,28.99
2018-05-27T14:26:08.283Z,29.04
2018-05-27T14:28:35.671Z,28.91
2018-05-27T14:31:03.071Z,29.29
2018-05-27T14:33:30.447Z,29.46
2018-05-27T14:35:57.843Z,29.62
2018-05-27T14:38:25.365Z,29.46
2018-05-27T14:40:52.759Z,29.44
2018-05-27T14:43:20.155Z,29.53
2018-05-27T14:45:47.540Z,29.41
2018-05-27T14:48:14.939Z,29.66
2018-05-27T14:50:42.374Z,29.69
2018-05-27T14:53:09.789Z,29.59
2018-05-27T14:55:37.171Z,29.41
2018-05-27T14:58:06.957Z,29.51
2018-05-27T15:00:34.363Z,29.50
2018-05-27T15:03:01.735Z,29.45
2018-05-27T15:05:29.207Z,29.30
2018-05-27T15:07:56.739Z,29.22
2018-05-27T15:10:24.130Z,29.33
2018-05-27T15:12:51.516Z,29.24
2018-05-27T15:15:18.911Z,29.20
2018-05-27T15:17:46.309Z,29.22
2018-05-27T15:20:13.700Z,29.11
2018-05-27T15:22:41.118Z,28.83
2018-05-27T15:25:08.503Z,28.63
2018-05-27T15:27:36.793Z,28.65
2018-05-27T15:30:04.182Z,28.66
2018-05-27T15:32:31.584Z,28.48
2018-05-27T15:34:58.971Z,28.23
2018-05-27T15:37:26.363Z,28.12
2018-05-27T15:39:53.759Z,27.94
2018-05-27T15:42:21.150Z,27.96
2018-05-27T15:44:48.543Z,27.88
2018-05-27T15:47:15.935Z,27.88
2018-05-27T15:49:43.387Z,27.71
2018-05-27T15:52:10.822Z,27.56
2018-05-27T15:54:38.219Z,27.51
2018-05-27T15:57:05.609Z,27.58
2018-05-27T15:59:33.003Z,27.62
2018-05-27T16:02:00.483Z,27.70
2018-05-27T16:04:27.871Z,27.66
2018-05-27T16:06:55.362Z,27.73
2018-05-27T16:09:23.542Z,27.78
2018-05-27T16:11:50.955Z,27.79
2018-05-27T16:14:18.432Z,27.76
2018-05-27T16:16:45.902Z,27.78
2018-05-27T16:19:13.577Z,27.76
2018-05-27T16:21:40.973Z,27.73
2018-05-27T16:24:08.351Z,27.65
2018-05-27T16:26:35.752Z,27.52
2018-05-27T16:29:03.179Z,27.30
2018-05-27T16:31:30.587Z,27.08
2018-05-27T16:33:57.996Z,26.82
2018-05-27T16:36:25.397Z,26.69
2018-05-27T16:38:52.814Z,26.51
2018-05-27T16:41:20.208Z,26.46
2018-05-27T16:43:47.590Z,26.39
2018-05-27T16:46:15.035Z,26.25
2018-05-27T16:48:42.479Z,25.95
2018-05-27T16:51:09.911Z,25.74
2018-05-27T16:53:37.323Z,25.59
2018-05-27T16:56:04.720Z,25.45
2018-05-27T16:58:32.123Z,25.29
2018-05-27T17:00:59.503Z,25.28
2018-05-27T17:03:26.898Z,25.20
2018-05-27T17:05:54.300Z,25.18
2018-05-27T17:08:21.733Z,25.11
2018-05-27T17:10:49.207Z,24.95
2018-05-27T17:13:16.790Z,24.86
2018-05-27T17:15:44.190Z,24.82
2018-05-27T17:18:11.607Z,24.66
2018-05-27T17:20:39.024Z,24.57
2018-05-27T17:23:06.413Z,24.55
2018-05-27T17:25:33.815Z,24.57
2018-05-27T17:28:01.203Z,24.64
2018-05-27T17:30:28.591Z,24.63
2018-05-27T17:32:55.986Z,24.63
2018-05-27T17:35:23.383Z,24.65
2018-05-27T17:37:50.780Z,24.65
2018-05-27T17:40:18.167Z,24.69
2018-05-27T17:42:45.567Z,24.71
2018-05-27T17:45:12.959Z,24.66
2018-05-27T17:47:40.358Z,24.69
2018-05-27T17:50:07.763Z,24.62
2018-05-27T17:52:35.151Z,24.61
2018-05-27T17:55:02.551Z,24.60
2018-05-27T17:57:29.999Z,24.69
2018-05-27T17:59:57.368Z,24.75
2018-05-27T18:02:24.794Z,24.65
2018-05-27T18:04:52.179Z,24.64
2018-05-27T18:07:19.564Z,24.49
2018-05-27T18:09:46.997Z,24.50
2018-05-27T18:12:14.355Z,24.56
2018-05-27T18:14:41.788Z,24.59
2018-05-27T18:17:09.209Z,24.54
2018-05-27T18:19:36.624Z,24.61
2018-05-27T18:22:04.020Z,24.62
2018-05-27T18:24:31.402Z,24.71
2018-05-27T18:26:58.799Z,24.64
2018-05-27T18:29:26.188Z,24.55
2018-05-27T18:31:53.604Z,24.54
2018-05-27T18:34:20.971Z,24.44
2018-05-27T18:36:48.364Z,24.43
2018-05-27T18:39:15.759Z,24.42
2018-05-27T18:41:43.147Z,24.43
2018-05-27T18:44:11.155Z,24.42
2018-05-27T18:46:38.543Z,24.44
2018-05-27T18:49:05.939Z,24.42
2018-05-27T18:51:33.328Z,24.23
2018-05-27T18:54:00.964Z,24.32
2018-05-27T18:56:28.351Z,24.34
2018-05-27T18:58:55.740Z,24.40
2018-05-27T19:01:23.133Z,24.39
2018-05-27T19:03:50.518Z,24.28
2018-05-27T19:06:17.907Z,24.28
2018-05-27T19:08:45.299Z,24.14
2018-05-27T19:11:12.692Z,24.07
2018-05-27T19:13:40.182Z,23.98
2018-05-27T19:16:07.585Z,23.87
2018-05-27T19:18:34.973Z,23.80
2018-05-27T19:21:02.365Z,23.72
2018-05-27T19:23:29.803Z,23.63
2018-05-27T19:25:57.198Z,23.50
2018-05-27T19:28:24.600Z,23.39
2018-05-27T19:30:51.987Z,23.39
2018-05-27T19:33:19.393Z,23.31
2018-05-27T19:35:46.776Z,23.23
2018-05-27T19:38:14.562Z,23.24
2018-05-27T19:40:41.951Z,23.15
2018-05-27T19:43:09.347Z,23.05
2018-05-27T19:45:36.813Z,23.04
2018-05-27T19:48:04.199Z,22.97
2018-05-27T19:50:31.599Z,22.93
2018-05-27T19:52:58.989Z,22.79
2018-05-27T19:55:26.563Z,22.74
2018-05-27T19:57:53.946Z,22.49
2018-05-27T20:00:21.680Z,22.50
2018-05-27T20:02:49.071Z,22.46
2018-05-27T20:05:16.458Z,22.44
2018-05-27T20:07:43.859Z,22.39
2018-05-27T20:10:11.250Z,22.36
2018-05-27T20:12:38.655Z,22.29
2018-05-27T20:15:06.091Z,22.22
2018-05-27T20:17:33.443Z,22.18
2018-05-27T20:20:00.827Z,22.13
2018-05-27T20:22:28.223Z,22.07
2018-05-27T20:24:55.620Z,22.01
2018-05-27T20:27:23.006Z,21.94
2018-05-27T20:29:50.400Z,21.94
2018-05-27T20:32:17.787Z,21.94
2018-05-27T20:34:45.179Z,21.94
2018-05-27T20:37:12.571Z,21.93
2018-05-27T20:39:39.978Z,21.85
2018-05-27T20:42:07.359Z,21.81
2018-05-27T20:44:34.748Z,21.83
2018-05-27T20:47:02.147Z,21.85
2018-05-27T20:49:29.539Z,21.87
2018-05-27T20:51:56.934Z,21.82
2018-05-27T20:54:24.319Z,21.76
2018-05-27T20:56:51.715Z,21.76
2018-05-27T20:59:19.106Z,21.73
2018-05-27T21:01:46.512Z,21.71
2018-05-27T21:04:13.898Z,21.68
2018-05-27T21:06:41.287Z,21.63
2018-05-27T21:09:08.679Z,21.60
2018-05-27T21:11:36.073Z,21.57
2018-05-27T21:14:03.459Z,21.55
2018-05-27T21:16:30.851Z,21.53
2018-05-27T21:18:58.247Z,21.52
2018-05-27T21:21:25.631Z,21.51
2018-05-27T21:23:53.029Z,21.50
2018-05-27T21:26:21.247Z,21.27
2018-05-27T21:28:48.644Z,21.31
2018-05-27T21:31:16.031Z,21.28
2018-05-27T21:33:43.483Z,21.13
2018-05-27T21:36:10.915Z,21.11
2018-05-27T21:38:38.306Z,21.12
2018-05-27T21:41:05.699Z,21.03
2018-05-27T21:43:33.087Z,21.00
2018-05-27T21:46:00.510Z,20.85
2018-05-27T21:48:27.903Z,20.74
2018-05-27T21:50:55.291Z,20.76
2018-05-27T21:53:22.683Z,20.80
2018-05-27T21:55:50.073Z,20.86
2018-05-27T21:58:17.472Z,20.82
2018-05-27T22:00:44.879Z,20.78
2018-05-27T22:03:12.271Z,20.76
2018-05-27T22:05:39.659Z,20.71
2018-05-27T22:08:07.043Z,20.72
2018-05-27T22:10:34.444Z,20.66
2018-05-27T22:13:01.831Z,20.62
2018-05-27T22:15:29.319Z,20.58
2018-05-27T22:17:57.115Z,20.51
2018-05-27T22:20:24.546Z,20.45
2018-05-27T22:22:51.919Z,20.33
2018-05-27T22:25:19.307Z,20.27
2018-05-27T22:27:46.703Z,20.26
2018-05-27T22:30:14.086Z,20.26
2018-05-27T22:32:41.491Z,20.27
2018-05-27T22:35:08.867Z,20.27
2018-05-27T22:37:36.266Z,20.23
2018-05-27T22:40:03.655Z,20.22
2018-05-27T22:42:31.049Z,20.18
2018-05-27T22:44:58.440Z,20.15
2018-05-27T22:47:25.819Z,20.19
2018-05-27T22:49:53.208Z,20.11
2018-05-27T22:52:20.599Z,20.05
2018-05-27T22:54:47.987Z,20.05
2018-05-27T22:57:15.542Z,19.91
2018-05-27T22:59:42.935Z,19.81
2018-05-27T23:02:10.328Z,19.68
2018-05-27T23:04:37.710Z,19.70
2018-05-27T23:07:05.108Z,19.67
2018-05-27T23:09:32.491Z,19.66
2018-05-27T23:11:59.898Z,19.65
2018-05-27T23:14:27.287Z,19.67
2018-05-27T23:16:54.679Z,19.65
2018-05-27T23:19:22.124Z,19.71
2018-05-27T23:21:49.523Z,19.73
2018-05-27T23:24:16.911Z,19.79
2018-05-27T23:26:44.303Z,19.81
2018-05-27T23:29:11.699Z,19.80
2018-05-27T23:31:39.092Z,19.80
2018-05-27T23:34:06.483Z,19.81
2018-05-27T23:36:33.875Z,19.80
2018-05-27T23:39:01.271Z,19.83
2018-05-27T23:41:28.655Z,19.85
2018-05-27T23:43:56.067Z,19.86
2018-05-27T23:46:23.464Z,19.81
2018-05-27T23:48:50.847Z,19.81
2018-05-27T23:51:18.239Z,19.82
2018-05-27T23:53:45.695Z,19.80
2018-05-27T23:56:13.090Z,19.77
2018-05-27T23:58:40.483Z,19.75
